Terminal Aerodrome Forecast
Issued by NWS

Home | Current Version | Previous Version | Text Only | Print | Product List | Glossary On
Versions: 1 2 3 4 5 6 7 8 9 10 11 12 13 14 15 16 17 18
000
FTAK31 PAFA 232340
TAFAFA
TAF
PAFA 232340Z 2400/2506 02005KT 6SM -SN FEW019 BKN035 OVC045
     FM240800 VRB03KT 1 1/2SM -SN BR BKN015 OVC025
     FM241600 VRB03KT 1SM -SN BR BKN015 OVC025=

USA.gov is the U.S. government's official web portal to all federal, state and local government web resources and services.